Assimina II — D5CO8 — position and weather

sailwx.info

Track history (hours):
 
Tides and Currents Weather Stations Pressure Air Temp Water Temp Dewpoint Dewpoint Depression Visibility Wind Speed Wind Dir Waves Ship Positions

Assimina II

Last reported at 2017-Aug-21 00:58 UTC. Time now 2017-Sep-20 00:24 UTC.
Position N 27°06' W 014°28'.
Warning: this ship's position is 29 days out of date.

Length 178 m; draft 9.8 m.

Type: Cargo ship. MMSI: 636015750.

Date/timePositionNaut miles runAvg speedWind from/ knotsBaromVisibWave heightAir tempDewpointWater temp
2017-Aug-21 00:58N 27°06' W 014°28'612.2
2017-Aug-21 00:31N 27°11' W 014°24'612.3
2017-Aug-20 23:59N 27°16' W 014°20'2012.3
2017-Aug-20 22:19N 27°33' W 014°07'412.6
2017-Aug-20 21:59N 27°36' W 014°04'712.8
2017-Aug-20 21:25N 27°42' W 013°59'1413.0
2017-Aug-20 20:20N 27°54' W 013°50'412.5
2017-Aug-20 19:59N 27°57' W 013°47'612.4
2017-Aug-20 19:28N 28°03' W 013°43'612.2
2017-Aug-20 19:01N 28°07' W 013°39'612.3
2017-Aug-20 18:30N 28°12' W 013°35'612.4
2017-Aug-20 18:01N 28°17' W 013°31'612.3
2017-Aug-20 17:31N 28°22' W 013°27'612.2
2017-Aug-20 17:00N 28°27' W 013°23'612.3
2017-Aug-20 16:29N 28°33' W 013°19'612.6
2017-Aug-20 16:01N 28°37' W 013°15'612.5
2017-Aug-20 15:31N 28°43' W 013°11'612.5
2017-Aug-20 15:01N 28°48' W 013°07'712.0
2017-Aug-20 14:27N 28°53' W 013°03'612.1
2017-Aug-20 13:58N 28°58' W 012°59'612.0
2017-Aug-20 13:30N 29°03' W 012°55'612.0
2017-Aug-20 13:01N 29°07' W 012°51'812.0
2017-Aug-20 12:22N 29°13' W 012°46'2412.0
2017-Aug-20 10:23N 29°33' W 012°30'812.1
2017-Aug-20 09:43N 29°39' W 012°24'312.0
2017-Aug-20 09:30N 29°41' W 012°23'1412.0
2017-Aug-20 08:19N 29°53' W 012°13'412.2
2017-Aug-20 08:00N 29°56' W 012°11'612.1
2017-Aug-20 07:30N 30°01' W 012°07'612.1
2017-Aug-20 07:00N 30°06' W 012°03'712.1
2017-Aug-20 06:27N 30°12' W 011°59'512.2
2017-Aug-20 06:00N 30°16' W 011°55'1112.1
2017-Aug-20 05:06N 30°25' W 011°48'2112.2
2017-Aug-20 03:22N 30°42' W 011°33'412.0
2017-Aug-20 03:01N 30°46' W 011°30'611.8
2017-Aug-20 02:29N 30°51' W 011°27'612.2
2017-Aug-20 02:01N 30°56' W 011°23'612.3
2017-Aug-20 01:31N 31°01' W 011°19'812.7
2017-Aug-20 00:51N 31°08' W 011°13'3712.6
2017-Aug-19 21:53N 31°38' W 010°47'24711.7
2017-Aug-19 00:48N 34°39' W 007°28'311.7
2017-Aug-19 00:30N 34°42' W 007°25'611.6
2017-Aug-19 00:01N 34°46' W 007°20'611.7
2017-Aug-18 23:30N 34°50' W 007°15'611.9
2017-Aug-18 23:01N 34°54' W 007°10'10311.4
2017-Aug-18 13:54N 35°59' W 005°30'410.5
2017-Aug-18 13:30N 36°00' W 005°26'611.4
2017-Aug-18 13:00N 36°06' W 005°23'8 0.3
2017-Aug-17 12:04N 36°06' W 005°13'1 9.2
2017-Aug-17 11:57N 36°06' W 005°12'22311.0
2017-Aug-16 15:35N 36°47' W 000°39'1 2.7
2017-Aug-16 15:12N 36°48' W 000°38'11311.3
2017-Aug-16 05:14N 37°23' E 001°37'1412.1
2017-Aug-16 04:02N 37°27' E 001°54'012.1
2017-Aug-16 04:00N 37°27' E 001°55'611.9
2017-Aug-16 03:30N 37°29' E 002°02'611.9
2017-Aug-16 03:00N 37°29' E 002°09'611.9
2017-Aug-16 02:30N 37°29' E 002°17'611.8
2017-Aug-16 02:00N 37°29' E 002°24'611.7
2017-Aug-16 01:30N 37°29' E 002°32'611.6
2017-Aug-16 01:00N 37°29' E 002°39'611.7
2017-Aug-16 00:30N 37°30' E 002°46'611.7
2017-Aug-16 00:00N 37°30' E 002°54'611.7
2017-Aug-15 23:30N 37°30' E 003°01'611.6
2017-Aug-15 23:00N 37°30' E 003°08'611.4
2017-Aug-15 22:30N 37°31' E 003°16'1011.5
2017-Aug-15 21:40N 37°31' E 003°28'511.5
2017-Aug-15 21:13N 37°31' E 003°34'211.6
2017-Aug-15 21:00N 37°31' E 003°37'611.6
2017-Aug-15 20:30N 37°31' E 003°45'611.7
2017-Aug-15 20:00N 37°31' E 003°52'611.8
2017-Aug-15 19:30N 37°31' E 003°59'611.8
2017-Aug-15 19:00N 37°31' E 004°07'611.9
2017-Aug-15 18:30N 37°32' E 004°14'611.8
2017-Aug-15 18:00N 37°32' E 004°22'611.4
2017-Aug-15 17:30N 37°32' E 004°29'611.3
2017-Aug-15 17:00N 37°32' E 004°36'611.8
2017-Aug-15 16:30N 37°32' E 004°43'611.8
2017-Aug-15 16:00N 37°33' E 004°51'612.1
2017-Aug-15 15:30N 37°33' E 004°59'612.2
2017-Aug-15 15:00N 37°33' E 005°06'612.2
2017-Aug-15 14:30N 37°33' E 005°14'612.2
2017-Aug-15 14:00N 37°33' E 005°22'612.0
2017-Aug-15 13:30N 37°33' E 005°29'611.9
2017-Aug-15 13:00N 37°33' E 005°37'611.9
2017-Aug-15 12:30N 37°33' E 005°44'611.7
2017-Aug-15 12:00N 37°33' E 005°52'611.8
2017-Aug-15 11:30N 37°34' E 005°59'11411.4
2017-Aug-15 01:34N 37°37' E 008°22'112.2
2017-Aug-15 01:30N 37°37' E 008°23'612.2
2017-Aug-15 00:59N 37°37' E 008°31'611.8
2017-Aug-15 00:30N 37°37' E 008°38'611.5
2017-Aug-15 00:00N 37°37' E 008°46'611.3
2017-Aug-14 23:30N 37°38' E 008°53'611.2
2017-Aug-14 22:59N 37°38' E 008°60'511.1
2017-Aug-14 22:30N 37°39' E 009°07'610.9
2017-Aug-14 21:59N 37°39' E 009°14'611.1
2017-Aug-14 21:27N 37°39' E 009°21'511.1
2017-Aug-14 20:59N 37°40' E 009°28'511.1
2017-Aug-14 20:30N 37°40' E 009°35'1611.3
2017-Aug-14 19:04N 37°39' E 009°55'111.6
2017-Aug-14 19:00N 37°39' E 009°56'611.6
2017-Aug-14 18:30N 37°39' E 010°03'611.7
2017-Aug-14 18:01N 37°39' E 010°11'611.8
2017-Aug-14 17:30N 37°39' E 010°18'611.6
2017-Aug-14 17:00N 37°38' E 010°25'611.7
2017-Aug-14 16:30N 37°36' E 010°32'611.7
2017-Aug-14 16:00N 37°34' E 010°39'611.5
2017-Aug-14 15:30N 37°33' E 010°47'611.5
2017-Aug-14 15:00N 37°32' E 010°53'811.4
2017-Aug-14 14:17N 37°29' E 011°04'12911.5
2017-Aug-14 02:59N 36°41' E 013°34'511.6
2017-Aug-14 02:30N 36°40' E 013°41'611.7
2017-Aug-14 01:58N 36°38' E 013°48'511.7
2017-Aug-14 01:30N 36°36' E 013°55'611.9
2017-Aug-14 01:00N 36°34' E 014°02'912.1
2017-Aug-14 00:17N 36°31' E 014°12'311.8
2017-Aug-14 00:00N 36°30' E 014°16'611.7
2017-Aug-13 23:30N 36°28' E 014°22'611.5
2017-Aug-13 23:00N 36°26' E 014°29'611.2
2017-Aug-13 22:30N 36°24' E 014°36'  
2017-Aug-11 01:45N 35°51' E 030°22'312.1
2017-Aug-11 01:28N 35°51' E 030°26'612.0
2017-Aug-11 01:00N 35°51' E 030°33'  
Track history (hours):
 
Tides and Currents Weather Stations Pressure Air Temp Water Temp Dewpoint Dewpoint Depression Visibility Wind Speed Wind Dir Waves Ship Positions

Assimina II

Last reported at 2017-Aug-21 00:58 UTC. Time now 2017-Sep-20 00:24 UTC.
Position N 27°06' W 014°28'.
Warning: this ship's position is 29 days out of date.

Length 178 m; draft 9.8 m.

Type: Cargo ship. MMSI: 636015750.

Date/timePositionNaut miles runAvg speedWind from/ knotsBaromVisibWave heightAir tempDewpointWater temp
2017-Aug-21 00:58N 27°06' W 014°28'612.2
2017-Aug-21 00:31N 27°11' W 014°24'612.3
2017-Aug-20 23:59N 27°16' W 014°20'2012.3
2017-Aug-20 22:19N 27°33' W 014°07'412.6
2017-Aug-20 21:59N 27°36' W 014°04'712.8
2017-Aug-20 21:25N 27°42' W 013°59'1413.0
2017-Aug-20 20:20N 27°54' W 013°50'412.5
2017-Aug-20 19:59N 27°57' W 013°47'612.4
2017-Aug-20 19:28N 28°03' W 013°43'612.2
2017-Aug-20 19:01N 28°07' W 013°39'612.3
2017-Aug-20 18:30N 28°12' W 013°35'612.4
2017-Aug-20 18:01N 28°17' W 013°31'612.3
2017-Aug-20 17:31N 28°22' W 013°27'612.2
2017-Aug-20 17:00N 28°27' W 013°23'612.3
2017-Aug-20 16:29N 28°33' W 013°19'612.6
2017-Aug-20 16:01N 28°37' W 013°15'612.5
2017-Aug-20 15:31N 28°43' W 013°11'612.5
2017-Aug-20 15:01N 28°48' W 013°07'712.0
2017-Aug-20 14:27N 28°53' W 013°03'612.1
2017-Aug-20 13:58N 28°58' W 012°59'612.0
2017-Aug-20 13:30N 29°03' W 012°55'612.0
2017-Aug-20 13:01N 29°07' W 012°51'812.0
2017-Aug-20 12:22N 29°13' W 012°46'2412.0
2017-Aug-20 10:23N 29°33' W 012°30'812.1
2017-Aug-20 09:43N 29°39' W 012°24'312.0
2017-Aug-20 09:30N 29°41' W 012°23'1412.0
2017-Aug-20 08:19N 29°53' W 012°13'412.2
2017-Aug-20 08:00N 29°56' W 012°11'612.1
2017-Aug-20 07:30N 30°01' W 012°07'612.1
2017-Aug-20 07:00N 30°06' W 012°03'712.1
2017-Aug-20 06:27N 30°12' W 011°59'512.2
2017-Aug-20 06:00N 30°16' W 011°55'1112.1
2017-Aug-20 05:06N 30°25' W 011°48'2112.2
2017-Aug-20 03:22N 30°42' W 011°33'412.0
2017-Aug-20 03:01N 30°46' W 011°30'611.8
2017-Aug-20 02:29N 30°51' W 011°27'612.2
2017-Aug-20 02:01N 30°56' W 011°23'612.3
2017-Aug-20 01:31N 31°01' W 011°19'812.7
2017-Aug-20 00:51N 31°08' W 011°13'3712.6
2017-Aug-19 21:53N 31°38' W 010°47'24711.7
2017-Aug-19 00:48N 34°39' W 007°28'311.7
2017-Aug-19 00:30N 34°42' W 007°25'611.6
2017-Aug-19 00:01N 34°46' W 007°20'611.7
2017-Aug-18 23:30N 34°50' W 007°15'611.9
2017-Aug-18 23:01N 34°54' W 007°10'10311.4
2017-Aug-18 13:54N 35°59' W 005°30'410.5
2017-Aug-18 13:30N 36°00' W 005°26'611.4
2017-Aug-18 13:00N 36°06' W 005°23'8 0.3
2017-Aug-17 12:04N 36°06' W 005°13'1 9.2
2017-Aug-17 11:57N 36°06' W 005°12'22311.0
2017-Aug-16 15:35N 36°47' W 000°39'1 2.7
2017-Aug-16 15:12N 36°48' W 000°38'11311.3
2017-Aug-16 05:14N 37°23' E 001°37'1412.1
2017-Aug-16 04:02N 37°27' E 001°54'012.1
2017-Aug-16 04:00N 37°27' E 001°55'611.9
2017-Aug-16 03:30N 37°29' E 002°02'611.9
2017-Aug-16 03:00N 37°29' E 002°09'611.9
2017-Aug-16 02:30N 37°29' E 002°17'611.8
2017-Aug-16 02:00N 37°29' E 002°24'611.7
2017-Aug-16 01:30N 37°29' E 002°32'611.6
2017-Aug-16 01:00N 37°29' E 002°39'611.7
2017-Aug-16 00:30N 37°30' E 002°46'611.7
2017-Aug-16 00:00N 37°30' E 002°54'611.7
2017-Aug-15 23:30N 37°30' E 003°01'611.6
2017-Aug-15 23:00N 37°30' E 003°08'611.4
2017-Aug-15 22:30N 37°31' E 003°16'1011.5
2017-Aug-15 21:40N 37°31' E 003°28'511.5
2017-Aug-15 21:13N 37°31' E 003°34'211.6
2017-Aug-15 21:00N 37°31' E 003°37'611.6
2017-Aug-15 20:30N 37°31' E 003°45'611.7
2017-Aug-15 20:00N 37°31' E 003°52'611.8
2017-Aug-15 19:30N 37°31' E 003°59'611.8
2017-Aug-15 19:00N 37°31' E 004°07'611.9
2017-Aug-15 18:30N 37°32' E 004°14'611.8
2017-Aug-15 18:00N 37°32' E 004°22'611.4
2017-Aug-15 17:30N 37°32' E 004°29'611.3
2017-Aug-15 17:00N 37°32' E 004°36'611.8
2017-Aug-15 16:30N 37°32' E 004°43'611.8
2017-Aug-15 16:00N 37°33' E 004°51'612.1
2017-Aug-15 15:30N 37°33' E 004°59'612.2
2017-Aug-15 15:00N 37°33' E 005°06'612.2
2017-Aug-15 14:30N 37°33' E 005°14'612.2
2017-Aug-15 14:00N 37°33' E 005°22'612.0
2017-Aug-15 13:30N 37°33' E 005°29'611.9
2017-Aug-15 13:00N 37°33' E 005°37'611.9
2017-Aug-15 12:30N 37°33' E 005°44'611.7
2017-Aug-15 12:00N 37°33' E 005°52'611.8
2017-Aug-15 11:30N 37°34' E 005°59'11411.4
2017-Aug-15 01:34N 37°37' E 008°22'112.2
2017-Aug-15 01:30N 37°37' E 008°23'612.2
2017-Aug-15 00:59N 37°37' E 008°31'611.8
2017-Aug-15 00:30N 37°37' E 008°38'611.5
2017-Aug-15 00:00N 37°37' E 008°46'611.3
2017-Aug-14 23:30N 37°38' E 008°53'611.2
2017-Aug-14 22:59N 37°38' E 008°60'511.1
2017-Aug-14 22:30N 37°39' E 009°07'610.9
2017-Aug-14 21:59N 37°39' E 009°14'611.1
2017-Aug-14 21:27N 37°39' E 009°21'511.1
2017-Aug-14 20:59N 37°40' E 009°28'511.1
2017-Aug-14 20:30N 37°40' E 009°35'1611.3
2017-Aug-14 19:04N 37°39' E 009°55'111.6
2017-Aug-14 19:00N 37°39' E 009°56'611.6
2017-Aug-14 18:30N 37°39' E 010°03'611.7
2017-Aug-14 18:01N 37°39' E 010°11'611.8
2017-Aug-14 17:30N 37°39' E 010°18'611.6
2017-Aug-14 17:00N 37°38' E 010°25'611.7
2017-Aug-14 16:30N 37°36' E 010°32'611.7
2017-Aug-14 16:00N 37°34' E 010°39'611.5
2017-Aug-14 15:30N 37°33' E 010°47'611.5
2017-Aug-14 15:00N 37°32' E 010°53'811.4
2017-Aug-14 14:17N 37°29' E 011°04'12911.5
2017-Aug-14 02:59N 36°41' E 013°34'511.6
2017-Aug-14 02:30N 36°40' E 013°41'611.7
2017-Aug-14 01:58N 36°38' E 013°48'511.7
2017-Aug-14 01:30N 36°36' E 013°55'611.9
2017-Aug-14 01:00N 36°34' E 014°02'912.1
2017-Aug-14 00:17N 36°31' E 014°12'311.8
2017-Aug-14 00:00N 36°30' E 014°16'611.7
2017-Aug-13 23:30N 36°28' E 014°22'611.5
2017-Aug-13 23:00N 36°26' E 014°29'611.2
2017-Aug-13 22:30N 36°24' E 014°36'  
2017-Aug-11 01:45N 35°51' E 030°22'312.1
2017-Aug-11 01:28N 35°51' E 030°26'612.0
2017-Aug-11 01:00N 35°51' E 030°33'  

Dump ship's entire track history